Time;durP1;ratioP1;P1;durP2;ratioP2;P2;SDS_P1;SDS_P2;PMS_P1;PMS_P2;Temp;Humidity;BMP_temperature;BMP_pressure;BME280_temperature;BME280_humidity;BME280_pressure;Samples;Min_cycle;Max_cycle;Signal;HPM_P1;HPM_P2
2024/04/04 00:01:00;;;;;;;4.82;0.90;;;12.60;99.90;;;;;;5075096;28;20404;-74
2024/04/04 00:03:28;;;;;;;1.42;0.68;;;12.60;99.90;;;;;;5074474;28;20016;-75
2024/04/04 00:05:54;;;;;;;2.90;0.75;;;12.60;99.90;;;;;;5092894;28;20054;-75
2024/04/04 00:08:19;;;;;;;4.18;0.98;;;12.60;99.90;;;;;;5092633;28;20024;-80
2024/04/04 00:10:45;;;;;;;4.18;0.90;;;12.60;99.90;;;;;;5074888;28;20031;-75
2024/04/04 00:13:11;;;;;;;0.95;0.80;;;12.60;99.90;;;;;;5074443;28;20109;-75
2024/04/04 00:15:40;;;;;;;5.28;0.90;;;12.60;99.90;;;;;;5074452;28;20054;-75
2024/04/04 00:18:06;;;;;;;3.63;0.57;;;12.50;99.90;;;;;;5074966;28;20098;-75
2024/04/04 00:20:37;;;;;;;3.05;0.70;;;12.60;99.90;;;;;;5074439;28;20023;-76
2024/04/04 00:23:03;;;;;;;1.75;0.68;;;12.60;99.90;;;;;;5075184;28;20338;-75
2024/04/04 00:25:28;;;;;;;2.65;0.85;;;12.60;99.90;;;;;;5074501;28;20074;-75
2024/04/04 00:27:54;;;;;;;3.92;0.98;;;12.60;99.90;;;;;;5075012;28;20370;-75
2024/04/04 00:30:20;;;;;;;3.75;0.90;;;12.60;99.90;;;;;;5074732;28;20061;-75
2024/04/04 00:32:45;;;;;;;6.18;1.10;;;12.60;99.90;;;;;;5074437;28;20020;-75
2024/04/04 00:35:11;;;;;;;1.83;1.27;;;12.50;99.90;;;;;;5092759;28;20048;-75
2024/04/04 00:37:36;;;;;;;2.60;0.77;;;12.60;99.90;;;;;;5074226;28;20372;-76
2024/04/04 00:40:03;;;;;;;4.50;1.00;;;12.50;99.90;;;;;;5092731;28;20038;-75
2024/04/04 00:42:29;;;;;;;2.00;0.70;;;12.40;99.90;;;;;;5092179;28;20054;-75
2024/04/04 00:44:54;;;;;;;2.55;1.45;;;12.40;99.90;;;;;;5074491;28;20044;-75
2024/04/04 00:47:20;;;;;;;2.55;0.82;;;12.40;99.90;;;;;;5075915;28;20032;-76
2024/04/04 00:49:47;;;;;;;4.00;0.70;;;12.40;99.90;;;;;;5095670;28;20384;-75
2024/04/04 00:52:13;;;;;;;1.95;0.73;;;12.50;99.90;;;;;;5078392;28;20029;-75
2024/04/04 00:54:42;;;;;;;2.08;0.73;;;12.40;99.90;;;;;;5096044;28;20027;-75
2024/04/04 00:57:09;;;;;;;1.02;0.65;;;12.40;99.90;;;;;;5077135;28;20059;-75
2024/04/04 00:59:38;;;;;;;2.53;0.60;;;12.50;99.90;;;;;;5076712;28;20030;-75
2024/04/04 01:02:04;;;;;;;2.25;0.70;;;12.40;99.90;;;;;;5105467;28;20020;-75
2024/04/04 01:04:30;;;;;;;3.90;0.75;;;12.40;99.90;;;;;;5070820;28;20027;-75
2024/04/04 01:06:56;;;;;;;2.20;0.50;;;12.40;99.90;;;;;;5095170;28;20019;-75
2024/04/04 01:09:22;;;;;;;3.17;0.65;;;12.40;99.90;;;;;;5116675;28;20019;-75
2024/04/04 01:11:48;;;;;;;2.15;0.50;;;12.40;99.90;;;;;;5097757;28;20031;-75
2024/04/04 01:14:13;;;;;;;1.90;0.60;;;12.40;99.90;;;;;;5098318;28;20019;-76
2024/04/04 01:16:39;;;;;;;1.70;0.57;;;12.40;99.90;;;;;;5097618;28;20027;-75
2024/04/04 01:19:05;;;;;;;4.95;0.70;;;12.40;99.90;;;;;;5098232;28;20491;-75
2024/04/04 01:21:30;;;;;;;1.80;0.60;;;12.40;99.90;;;;;;5097493;28;20024;-75
2024/04/04 01:23:56;;;;;;;2.42;0.70;;;12.40;99.90;;;;;;5098003;28;20020;-75
2024/04/04 01:26:21;;;;;;;5.07;1.10;;;12.40;99.90;;;;;;5116594;28;20393;-75
2024/04/04 01:28:47;;;;;;;1.98;0.85;;;12.40;99.90;;;;;;5097562;28;20035;-76
2024/04/04 01:31:13;;;;;;;1.02;0.60;;;12.40;99.90;;;;;;5098158;28;20038;-75
2024/04/04 01:33:39;;;;;;;3.80;0.82;;;12.50;99.90;;;;;;5097456;28;20449;-75
2024/04/04 01:36:05;;;;;;;2.22;0.60;;;12.50;99.90;;;;;;5115966;28;20024;-75
2024/04/04 01:38:31;;;;;;;1.85;0.50;;;12.50;99.90;;;;;;5097328;28;20020;-75
2024/04/04 01:40:56;;;;;;;1.33;0.80;;;12.50;99.90;;;;;;5097659;28;20123;-75
2024/04/04 01:43:22;;;;;;;5.10;0.70;;;12.50;99.90;;;;;;5097722;28;20048;-75
2024/04/04 01:45:47;;;;;;;3.55;0.80;;;12.60;99.90;;;;;;5115006;28;20047;-76
2024/04/04 01:48:14;;;;;;;1.73;0.43;;;12.60;99.90;;;;;;5097663;28;20082;-75
2024/04/04 01:50:40;;;;;;;2.55;0.70;;;12.60;99.90;;;;;;5097292;28;20028;-75
2024/04/04 01:53:05;;;;;;;3.17;0.90;;;12.60;99.90;;;;;;5115823;28;20448;-75
2024/04/04 01:55:31;;;;;;;4.05;0.60;;;12.50;99.90;;;;;;5097416;28;20428;-75
2024/04/04 01:58:00;;;;;;;2.13;0.65;;;12.50;99.90;;;;;;5096862;28;20035;-75
2024/04/04 02:00:29;;;;;;;4.50;0.95;;;12.60;99.90;;;;;;5097469;28;20024;-81
2024/04/04 02:02:55;;;;;;;0.82;0.43;;;12.50;99.90;;;;;;5097578;28;20075;-75
2024/04/04 02:05:20;;;;;;;1.27;0.50;;;12.50;99.90;;;;;;5097438;28;20023;-75
2024/04/04 02:07:46;;;;;;;2.53;0.80;;;12.50;99.90;;;;;;5097148;28;20636;-76
2024/04/04 02:10:12;;;;;;;2.25;0.80;;;12.50;99.90;;;;;;5097482;28;20562;-76
2024/04/04 02:12:38;;;;;;;6.53;0.80;;;12.50;99.90;;;;;;5115150;28;20076;-76
2024/04/04 02:15:04;;;;;;;4.88;0.70;;;12.50;99.90;;;;;;5115305;28;20028;-76
2024/04/04 02:17:30;;;;;;;3.95;0.52;;;12.40;99.90;;;;;;5096498;28;20042;-76
2024/04/04 02:19:56;;;;;;;2.00;0.50;;;12.40;99.90;;;;;;5097099;28;20020;-75
2024/04/04 02:22:22;;;;;;;3.13;0.52;;;12.40;99.90;;;;;;5097174;28;20023;-75
2024/04/04 02:24:47;;;;;;;3.47;0.60;;;12.50;99.90;;;;;;5096909;28;20030;-76
2024/04/04 02:27:13;;;;;;;0.88;0.50;;;12.50;99.90;;;;;;5115198;28;20532;-75
2024/04/04 02:29:43;;;;;;;1.13;0.50;;;12.50;99.90;;;;;;5096796;28;20073;-76
2024/04/04 02:32:09;;;;;;;1.98;0.52;;;12.50;99.90;;;;;;5115271;28;20012;-76
2024/04/04 02:34:34;;;;;;;1.33;0.52;;;12.50;99.90;;;;;;5115054;28;20069;-75
2024/04/04 02:37:00;;;;;;;3.22;0.68;;;12.50;99.90;;;;;;5096698;28;20080;-75
2024/04/04 02:39:25;;;;;;;1.25;0.43;;;12.60;99.90;;;;;;5096959;28;20026;-76
2024/04/04 02:41:51;;;;;;;1.80;0.45;;;12.60;99.90;;;;;;5114497;28;20464;-75
2024/04/04 02:44:16;;;;;;;3.17;0.50;;;12.60;99.90;;;;;;5114737;28;20111;-76
2024/04/04 02:46:43;;;;;;;1.63;0.50;;;12.70;99.90;;;;;;5096389;28;20062;-75
2024/04/04 02:49:09;;;;;;;1.85;0.60;;;12.70;99.90;;;;;;5096725;28;20024;-75
2024/04/04 02:51:35;;;;;;;2.22;0.77;;;12.70;99.90;;;;;;5095739;28;20016;-75
2024/04/04 02:54:01;;;;;;;2.22;0.47;;;12.80;99.90;;;;;;5096661;28;20054;-75
2024/04/04 02:56:26;;;;;;;2.45;0.52;;;12.80;99.90;;;;;;5114711;28;20077;-75
2024/04/04 02:58:52;;;;;;;3.10;0.50;;;12.80;99.90;;;;;;5113922;28;20024;-76
2024/04/04 03:01:17;;;;;;;1.00;0.32;;;12.80;99.90;;;;;;5114535;28;20404;-75
2024/04/04 03:03:46;;;;;;;1.15;0.30;;;12.80;99.90;;;;;;5095859;28;20027;-75
2024/04/04 03:06:17;;;;;;;1.05;0.47;;;12.70;99.90;;;;;;5096289;28;20024;-76
2024/04/04 03:08:43;;;;;;;0.85;0.50;;;12.80;99.90;;;;;;5095416;28;20140;-76
2024/04/04 03:11:09;;;;;;;1.35;0.30;;;12.70;99.90;;;;;;5113665;28;20436;-74
2024/04/04 03:13:34;;;;;;;1.17;0.43;;;12.80;99.90;;;;;;5095245;28;20027;-74
2024/04/04 03:16:00;;;;;;;2.35;0.50;;;12.80;99.90;;;;;;5114120;28;20032;-74
2024/04/04 03:18:26;;;;;;;2.72;0.65;;;12.70;99.90;;;;;;5095633;28;20039;-74
2024/04/04 03:20:51;;;;;;;1.25;0.30;;;12.70;99.90;;;;;;5095198;28;20103;-74
2024/04/04 03:23:17;;;;;;;2.90;0.50;;;12.70;99.90;;;;;;5095702;28;20349;-75
2024/04/04 03:25:43;;;;;;;1.40;0.47;;;12.70;99.90;;;;;;5095110;28;20031;-75
2024/04/04 03:28:08;;;;;;;2.75;0.38;;;12.70;99.90;;;;;;5095756;28;20027;-75
2024/04/04 03:30:34;;;;;;;1.15;0.40;;;12.70;99.90;;;;;;5113461;28;20338;-75
2024/04/04 03:33:00;;;;;;;0.98;0.38;;;12.70;99.90;;;;;;5095870;28;20475;-74
2024/04/04 03:35:26;;;;;;;1.17;0.50;;;12.60;99.90;;;;;;5113774;28;20106;-75
2024/04/04 03:37:52;;;;;;;2.28;0.35;;;12.60;99.90;;;;;;5096002;28;20651;-75
2024/04/04 03:40:17;;;;;;;1.60;0.32;;;12.60;99.90;;;;;;5113719;28;20027;-74
2024/04/04 03:42:43;;;;;;;1.88;0.40;;;12.60;99.90;;;;;;5113107;28;20463;-74
2024/04/04 03:45:09;;;;;;;0.68;0.20;;;12.60;99.90;;;;;;5095513;28;20164;-75
2024/04/04 03:47:35;;;;;;;2.05;0.45;;;12.60;99.90;;;;;;5113386;28;20153;-75
2024/04/04 03:50:02;;;;;;;2.80;0.60;;;12.60;99.90;;;;;;5113542;28;20405;-74
2024/04/04 03:52:28;;;;;;;1.45;0.40;;;12.60;99.90;;;;;;5095229;28;20122;-74
2024/04/04 03:54:54;;;;;;;2.72;0.95;;;12.60;99.90;;;;;;5113174;28;20016;-75
2024/04/04 03:57:19;;;;;;;2.47;0.52;;;12.60;99.90;;;;;;5095615;28;20445;-75
2024/04/04 03:59:45;;;;;;;0.90;0.40;;;12.60;99.90;;;;;;5113026;28;20020;-76
2024/04/04 04:02:11;;;;;;;1.30;0.65;;;12.70;99.90;;;;;;5113724;28;20026;-74
2024/04/04 04:04:36;;;;;;;2.95;0.60;;;12.70;99.90;;;;;;5094906;28;20020;-75
2024/04/04 04:07:02;;;;;;;4.03;0.60;;;12.70;99.90;;;;;;5095638;28;20020;-75
2024/04/04 04:09:27;;;;;;;1.45;0.35;;;12.80;99.90;;;;;;5095315;28;20435;-75
2024/04/04 04:11:53;;;;;;;2.08;0.50;;;12.80;99.90;;;;;;5095021;28;20215;-75
2024/04/04 04:14:18;;;;;;;2.90;0.80;;;12.80;99.90;;;;;;5095422;28;20024;-75
2024/04/04 04:16:44;;;;;;;2.72;0.50;;;12.90;99.90;;;;;;5113303;28;20445;-75
2024/04/04 04:19:10;;;;;;;4.15;0.73;;;12.90;99.90;;;;;;5094937;28;20097;-75
2024/04/04 04:21:36;;;;;;;1.75;0.32;;;12.90;99.90;;;;;;5096830;28;20026;-76
2024/04/04 04:24:02;;;;;;;1.17;0.40;;;12.90;99.90;;;;;;5099653;28;20023;-75
2024/04/04 04:26:28;;;;;;;3.97;0.60;;;12.90;99.90;;;;;;5099537;28;20050;-75
2024/04/04 04:28:54;;;;;;;2.00;0.40;;;12.90;99.90;;;;;;5098975;28;20059;-76
2024/04/04 04:31:26;;;;;;;2.78;0.73;;;12.90;99.90;;;;;;5117295;28;20019;-75
2024/04/04 04:34:03;;;;;;;6.53;0.68;;;13.00;99.90;;;;;;5099039;28;20020;-75
2024/04/04 04:36:35;;;;;;;2.85;0.50;;;12.90;99.90;;;;;;5099641;28;20020;-76
2024/04/04 04:39:01;;;;;;;;;;;13.00;99.90;;;;;;5100198;28;20030;-76
2024/04/04 04:41:27;;;;;;;1.42;0.43;;;13.00;99.90;;;;;;5099639;28;19904;-75
2024/04/04 04:43:53;;;;;;;1.67;0.50;;;13.00;99.90;;;;;;5116243;28;20020;-75
2024/04/04 04:46:18;;;;;;;2.67;0.63;;;13.00;99.90;;;;;;5098989;28;20024;-75
2024/04/04 04:48:45;;;;;;;2.35;0.75;;;13.00;99.90;;;;;;5116791;28;20058;-75
2024/04/04 04:51:11;;;;;;;4.47;0.70;;;13.10;99.90;;;;;;5088141;28;20020;-74
2024/04/04 04:53:37;;;;;;;4.18;0.55;;;13.10;99.90;;;;;;5075729;28;20381;-80
2024/04/04 04:56:03;;;;;;;3.22;0.52;;;13.10;99.90;;;;;;5076366;28;20035;-77
2024/04/04 04:58:30;;;;;;;3.00;0.50;;;13.10;99.90;;;;;;5058900;28;20063;-76
2024/04/04 05:00:56;;;;;;;5.30;0.43;;;13.10;99.90;;;;;;5058340;28;20025;-75
2024/04/04 05:03:23;;;;;;;1.42;0.45;;;13.20;99.90;;;;;;5076497;28;20446;-80
2024/04/04 05:05:50;;;;;;;1.50;0.32;;;13.10;99.90;;;;;;5066528;28;20016;-80
2024/04/04 05:08:19;;;;;;;2.70;0.40;;;13.10;99.90;;;;;;5097394;28;20111;-77
2024/04/04 05:10:46;;;;;;;3.88;0.47;;;13.10;99.90;;;;;;5096383;28;20036;-78
2024/04/04 05:13:12;;;;;;;3.70;0.75;;;13.10;99.90;;;;;;5078662;28;20016;-78
2024/04/04 05:15:53;;;;;;;1.38;0.30;;;13.10;99.90;;;;;;5078278;28;20456;-82
2024/04/04 05:18:19;;;;;;;1.13;0.30;;;13.20;99.90;;;;;;5079090;28;20039;-78
2024/04/04 05:20:44;;;;;;;3.33;0.47;;;13.20;99.90;;;;;;5078064;28;20024;-79
2024/04/04 05:23:10;;;;;;;6.05;0.43;;;13.20;99.90;;;;;;5096861;28;20468;-80
2024/04/04 05:25:36;;;;;;;2.00;0.50;;;13.20;99.90;;;;;;5078624;28;20020;-79
2024/04/04 05:28:02;;;;;;;2.42;0.40;;;13.20;99.90;;;;;;5078014;28;20053;-80
2024/04/04 05:30:28;;;;;;;0.35;0.30;;;13.20;99.90;;;;;;5096432;28;20522;-78
2024/04/04 05:32:54;;;;;;;5.68;0.57;;;13.20;99.90;;;;;;5073491;28;20103;-78
2024/04/04 05:35:20;;;;;;;1.00;0.30;;;13.20;99.90;;;;;;5060280;28;20044;-78
2024/04/04 05:37:45;;;;;;;2.53;0.50;;;13.30;99.90;;;;;;5058631;28;20029;-77
2024/04/04 05:40:11;;;;;;;4.47;0.60;;;13.30;99.90;;;;;;5078336;28;20032;-78
2024/04/04 05:42:37;;;;;;;1.80;0.52;;;13.30;99.90;;;;;;5060621;28;20071;-78
2024/04/04 05:45:03;;;;;;;3.75;0.52;;;13.30;99.90;;;;;;5059891;28;20036;-78
2024/04/04 05:47:29;;;;;;;1.30;0.40;;;13.30;99.90;;;;;;5076271;28;20032;-79
2024/04/04 05:49:55;;;;;;;3.65;0.60;;;13.30;99.90;;;;;;5058118;28;20365;-78
2024/04/04 05:52:20;;;;;;;3.47;0.45;;;13.30;99.90;;;;;;5058805;28;20021;-78
2024/04/04 05:54:51;;;;;;;9.35;0.90;;;13.30;99.90;;;;;;5058003;28;20475;-78
2024/04/04 05:57:17;;;;;;;2.70;1.08;;;13.40;99.90;;;;;;5076257;28;20039;-78
2024/04/04 05:59:43;;;;;;;2.30;0.63;;;13.30;99.90;;;;;;5057935;28;20366;-78
2024/04/04 06:02:11;;;;;;;5.72;0.65;;;13.40;99.90;;;;;;5076199;28;20028;-78
2024/04/04 06:04:37;;;;;;;3.42;0.70;;;13.40;99.90;;;;;;5058310;28;20058;-79
2024/04/04 06:07:03;;;;;;;2.90;0.50;;;13.50;99.90;;;;;;5057182;28;20021;-78
2024/04/04 06:09:29;;;;;;;4.53;0.88;;;13.50;99.90;;;;;;5075550;28;20024;-78
2024/04/04 06:11:55;;;;;;;5.45;0.73;;;13.50;99.90;;;;;;5075069;28;20023;-79
2024/04/04 06:14:21;;;;;;;5.43;1.23;;;13.60;99.90;;;;;;5057822;28;20020;-79
2024/04/04 06:16:46;;;;;;;4.55;0.85;;;13.60;99.90;;;;;;5057048;28;20032;-78
2024/04/04 06:19:12;;;;;;;5.70;0.75;;;13.60;99.90;;;;;;5057609;28;20100;-79
2024/04/04 06:21:38;;;;;;;9.43;1.10;;;13.70;99.90;;;;;;5075580;28;20024;-78
2024/04/04 06:24:03;;;;;;;2.45;0.80;;;13.70;99.90;;;;;;5075168;28;20027;-79
2024/04/04 06:26:29;;;;;;;5.93;1.00;;;13.80;99.90;;;;;;5057905;28;20067;-78
2024/04/04 06:28:55;;;;;;;12.00;1.67;;;13.80;99.90;;;;;;5057237;28;20128;-78
2024/04/04 06:31:22;;;;;;;3.65;0.70;;;13.70;99.90;;;;;;5057456;28;20032;-79
2024/04/04 06:33:47;;;;;;;3.65;1.02;;;13.70;99.90;;;;;;5074899;28;20017;-78
2024/04/04 06:36:13;;;;;;;7.75;1.23;;;13.60;99.90;;;;;;5075335;28;20040;-79
2024/04/04 06:38:40;;;;;;;8.45;1.42;;;13.60;99.90;;;;;;5057706;28;20028;-78
2024/04/04 06:41:05;;;;;;;5.13;1.60;;;13.50;99.90;;;;;;5056986;28;20025;-78
2024/04/04 06:43:31;;;;;;;4.97;1.30;;;13.50;99.90;;;;;;5057377;28;20020;-79
2024/04/04 06:45:56;;;;;;;7.22;1.00;;;13.50;99.90;;;;;;5075028;28;20376;-79
2024/04/04 06:48:22;;;;;;;1.75;0.80;;;13.50;99.90;;;;;;5057033;28;20035;-79
2024/04/04 06:50:48;;;;;;;4.35;0.95;;;13.50;99.90;;;;;;5074692;28;20038;-79
2024/04/04 06:53:13;;;;;;;3.90;0.80;;;13.50;99.90;;;;;;5057231;28;20047;-79
2024/04/04 06:55:39;;;;;;;6.22;0.98;;;13.40;99.90;;;;;;5057403;28;20020;-79
2024/04/04 06:58:04;;;;;;;4.03;0.85;;;13.50;99.90;;;;;;5056532;28;20481;-78
2024/04/04 07:00:30;;;;;;;7.80;1.10;;;13.50;99.90;;;;;;5057321;28;20032;-78
2024/04/04 07:02:56;;;;;;;6.20;1.10;;;13.50;99.90;;;;;;5056697;28;20024;-79
2024/04/04 07:05:24;;;;;;;4.88;0.80;;;13.50;99.90;;;;;;5074745;28;20020;-79
2024/04/04 07:07:50;;;;;;;6.50;1.27;;;13.50;99.90;;;;;;5056165;28;20445;-79
2024/04/04 07:10:15;;;;;;;5.70;1.00;;;13.50;99.90;;;;;;5057082;28;20027;-79
2024/04/04 07:12:41;;;;;;;8.57;1.10;;;13.40;99.90;;;;;;5056825;28;20023;-79
2024/04/04 07:15:07;;;;;;;3.20;0.85;;;13.50;99.90;;;;;;5074147;28;20353;-79
2024/04/04 07:17:33;;;;;;;6.07;1.13;;;13.40;99.90;;;;;;5056481;28;20059;-79
2024/04/04 07:19:59;;;;;;;5.68;0.98;;;13.50;99.90;;;;;;5056913;28;20021;-78
2024/04/04 07:22:26;;;;;;;5.82;0.88;;;13.50;99.90;;;;;;5075413;28;20020;-79
2024/04/04 07:24:52;;;;;;;4.68;1.10;;;13.60;99.90;;;;;;5074831;28;20021;-79
2024/04/04 07:27:17;;;;;;;4.38;1.05;;;13.60;99.90;;;;;;5057014;28;20548;-79
2024/04/04 07:29:44;;;;;;;4.47;0.90;;;13.60;99.90;;;;;;5056915;28;20116;-78
2024/04/04 07:32:10;;;;;;;6.05;0.90;;;13.70;99.90;;;;;;5074456;28;20429;-79
2024/04/04 07:34:36;;;;;;;4.53;1.00;;;13.70;99.90;;;;;;5056613;28;20020;-79
2024/04/04 07:37:02;;;;;;;4.75;0.70;;;13.70;99.90;;;;;;5055540;28;20024;-79
2024/04/04 07:39:30;;;;;;;4.65;1.08;;;13.80;99.90;;;;;;5056243;28;20051;-79
2024/04/04 07:41:56;;;;;;;4.88;0.93;;;13.80;99.90;;;;;;5055775;28;20021;-79
2024/04/04 07:44:22;;;;;;;5.18;0.95;;;13.90;99.90;;;;;;5056065;28;20046;-79
2024/04/04 07:46:51;;;;;;;3.92;1.35;;;14.00;99.90;;;;;;5055852;28;20063;-80
2024/04/04 07:49:17;;;;;;;7.63;1.20;;;14.10;99.90;;;;;;5056360;28;20024;-79
2024/04/04 07:51:43;;;;;;;11.25;1.33;;;14.20;99.90;;;;;;5073837;28;20019;-79
2024/04/04 07:54:08;;;;;;;6.65;1.25;;;14.30;99.90;;;;;;5055735;28;20031;-79
2024/04/04 07:56:34;;;;;;;7.57;1.20;;;14.40;99.90;;;;;;5073518;28;20100;-79
2024/04/04 07:58:59;;;;;;;8.30;1.35;;;14.50;99.90;;;;;;5055434;28;20369;-79
2024/04/04 08:01:26;;;;;;;5.15;0.90;;;14.50;99.90;;;;;;5073912;28;20028;-79
2024/04/04 08:03:52;;;;;;;3.33;0.90;;;14.50;99.90;;;;;;5055620;28;20461;-79
2024/04/04 08:06:18;;;;;;;6.43;0.93;;;14.50;99.90;;;;;;5056010;28;20022;-79
2024/04/04 08:08:43;;;;;;;9.32;1.13;;;14.60;99.90;;;;;;5055891;28;20025;-79
2024/04/04 08:11:12;;;;;;;4.55;0.80;;;14.60;99.90;;;;;;5055210;28;20504;-79
2024/04/04 08:13:43;;;;;;;4.28;1.40;;;14.60;99.90;;;;;;5055956;28;20119;-80
2024/04/04 08:16:08;;;;;;;8.80;1.00;;;14.50;99.90;;;;;;5055669;28;20032;-79
2024/04/04 08:18:34;;;;;;;5.88;1.00;;;14.50;99.90;;;;;;5073561;28;20028;-79
2024/04/04 08:21:00;;;;;;;2.35;0.75;;;14.50;99.90;;;;;;5073132;28;20023;-79
2024/04/04 08:23:26;;;;;;;5.80;0.95;;;14.50;99.90;;;;;;5055914;28;20027;-78
2024/04/04 08:25:56;;;;;;;9.18;1.10;;;14.40;99.90;;;;;;5055445;28;20021;-79
2024/04/04 08:28:22;;;;;;;4.07;1.25;;;14.40;99.90;;;;;;5055842;28;20032;-79
2024/04/04 08:30:56;;;;;;;10.90;1.23;;;14.30;99.90;;;;;;5073509;28;20029;-79
2024/04/04 08:33:24;;;;;;;7.43;1.10;;;14.20;99.90;;;;;;5056133;28;20032;-80
2024/04/04 08:35:50;;;;;;;5.10;0.98;;;14.20;99.90;;;;;;5055423;28;20020;-80
2024/04/04 08:38:15;;;;;;;3.78;1.08;;;14.20;99.90;;;;;;5056018;28;20086;-80
2024/04/04 08:40:42;;;;;;;5.05;1.00;;;14.20;99.90;;;;;;5055860;28;20028;-80
2024/04/04 08:43:08;;;;;;;6.80;1.08;;;14.10;99.90;;;;;;5055317;28;20075;-80
2024/04/04 08:45:42;;;;;;;5.88;1.10;;;14.20;99.90;;;;;;5055424;28;20040;-80
2024/04/04 08:48:08;;;;;;;9.27;1.40;;;14.20;99.90;;;;;;5072831;28;20043;-80
2024/04/04 08:50:33;;;;;;;4.78;1.50;;;14.20;99.90;;;;;;5055409;28;20115;-80
2024/04/04 08:52:59;;;;;;;4.20;0.90;;;14.20;99.90;;;;;;5055370;28;20070;-79
2024/04/04 08:55:26;;;;;;;6.10;0.77;;;14.30;99.90;;;;;;5055797;28;20027;-79
2024/04/04 08:57:52;;;;;;;7.65;1.27;;;14.30;99.90;;;;;;5055177;28;20086;-80
2024/04/04 09:00:20;;;;;;;5.13;1.27;;;14.20;99.90;;;;;;5055614;28;20029;-79
2024/04/04 09:02:46;;;;;;;6.55;1.13;;;14.10;99.90;;;;;;5073314;28;20025;-80
2024/04/04 09:05:12;;;;;;;6.07;1.05;;;14.20;99.90;;;;;;5054936;28;20031;-79
2024/04/04 09:07:38;;;;;;;4.88;1.15;;;14.20;99.90;;;;;;5073325;28;20028;-79
2024/04/04 09:10:05;;;;;;;5.35;1.00;;;14.20;99.90;;;;;;5058521;28;20028;-79
2024/04/04 09:12:31;;;;;;;5.07;1.17;;;14.20;99.90;;;;;;5059041;28;20025;-79
2024/04/04 09:15:00;;;;;;;6.60;1.20;;;14.20;99.90;;;;;;5076442;28;20347;-79
2024/04/04 09:17:29;;;;;;;3.90;1.08;;;14.20;99.90;;;;;;5076561;28;20119;-80
2024/04/04 09:19:56;;;;;;;5.43;1.27;;;14.10;99.90;;;;;;5058275;28;20020;-79
2024/04/04 09:22:23;;;;;;;6.47;1.00;;;14.10;99.90;;;;;;5058692;28;20115;-80
2024/04/04 09:24:49;;;;;;;8.77;1.23;;;14.10;99.90;;;;;;5058977;28;20020;-79
2024/04/04 09:27:18;;;;;;;8.93;1.48;;;14.10;99.90;;;;;;5076108;28;20020;-79
2024/04/04 09:29:45;;;;;;;9.00;1.58;;;14.00;99.90;;;;;;5076756;28;20039;-79
2024/04/04 09:32:13;;;;;;;5.82;1.90;;;14.10;99.90;;;;;;5058253;28;20477;-80
2024/04/04 09:34:42;;;;;;;10.07;2.20;;;14.00;99.90;;;;;;5058846;28;20020;-79
2024/04/04 09:37:15;;;;;;;9.18;1.35;;;14.00;99.90;;;;;;5075880;28;20021;-79
2024/04/04 09:39:42;;;;;;;4.68;1.13;;;14.00;99.90;;;;;;5058447;28;20020;-79
2024/04/04 09:42:09;;;;;;;7.20;1.27;;;14.00;99.90;;;;;;5075820;28;20032;-80
2024/04/04 09:44:37;;;;;;;8.77;1.55;;;13.90;99.90;;;;;;5058478;28;20123;-79
2024/04/04 09:47:04;;;;;;;9.30;1.67;;;13.90;99.90;;;;;;5057933;28;20473;-78
2024/04/04 09:49:31;;;;;;;8.27;1.10;;;13.90;99.90;;;;;;5058572;28;20446;-79
2024/04/04 09:52:03;;;;;;;7.13;0.90;;;13.90;99.90;;;;;;5075635;28;20020;-79
2024/04/04 09:54:30;;;;;;;6.07;1.10;;;13.90;99.90;;;;;;5058392;28;20032;-79
2024/04/04 09:56:57;;;;;;;5.93;1.33;;;13.90;99.90;;;;;;5057747;28;20020;-79
2024/04/04 09:59:26;;;;;;;2.92;0.82;;;14.00;99.90;;;;;;5058298;28;20042;-79
2024/04/04 10:01:52;;;;;;;9.57;1.15;;;13.90;99.90;;;;;;5058231;28;20074;-80
2024/04/04 10:04:19;;;;;;;7.68;1.23;;;13.90;99.90;;;;;;5058143;28;20025;-79
2024/04/04 10:06:46;;;;;;;4.10;0.90;;;13.90;99.90;;;;;;5058464;28;20441;-79
2024/04/04 10:09:18;;;;;;;6.03;1.35;;;13.90;99.90;;;;;;5057703;28;20020;-78
2024/04/04 10:11:44;;;;;;;6.88;1.45;;;13.90;99.90;;;;;;5058216;28;20056;-79
2024/04/04 10:14:19;;;;;;;6.45;1.02;;;13.90;99.90;;;;;;5057497;28;20339;-79
2024/04/04 10:16:53;;;;;;;3.90;0.80;;;14.00;99.90;;;;;;5075911;28;20029;-79
2024/04/04 10:19:32;;;;;;;3.50;0.80;;;14.00;99.90;;;;;;5074847;28;20024;-79
2024/04/04 10:21:59;;;;;;;7.20;1.15;;;14.10;99.90;;;;;;5057765;28;20119;-80
2024/04/04 10:24:35;;;;;;;8.10;1.52;;;14.10;99.90;;;;;;5057760;28;20520;-79
2024/04/04 10:27:07;;;;;;;4.10;1.33;;;14.20;99.90;;;;;;5057442;28;20025;-80
2024/04/04 10:29:34;;;;;;;6.93;1.25;;;14.20;99.90;;;;;;5058167;28;20031;-79
2024/04/04 10:32:04;;;;;;;5.05;1.20;;;14.20;99.90;;;;;;5057089;28;20548;-79
2024/04/04 10:34:30;;;;;;;4.50;1.00;;;14.30;99.90;;;;;;5075284;28;20075;-80
2024/04/04 10:36:56;;;;;;;6.32;1.30;;;14.30;99.90;;;;;;5057531;28;20020;-83
2024/04/04 10:39:22;;;;;;;5.97;0.98;;;14.30;99.90;;;;;;5075414;28;20385;-80
2024/04/04 10:41:50;;;;;;;5.53;1.00;;;14.30;99.90;;;;;;5057771;28;20020;-80
2024/04/04 10:44:17;;;;;;;4.75;1.08;;;14.40;99.90;;;;;;5056750;28;20330;-79
2024/04/04 10:46:50;;;;;;;3.53;1.30;;;14.30;99.90;;;;;;5057545;28;20028;-79
2024/04/04 10:49:18;;;;;;;9.32;1.65;;;14.30;99.90;;;;;;5074373;28;20603;-79
2024/04/04 10:51:55;;;;;;;5.25;1.13;;;14.20;99.90;;;;;;5075059;28;20020;-79
2024/04/04 10:54:22;;;;;;;4.32;1.27;;;14.20;99.90;;;;;;5056642;28;20484;-80
2024/04/04 10:56:48;;;;;;;4.18;0.90;;;14.20;99.90;;;;;;5074826;28;20034;-79
2024/04/04 10:59:17;;;;;;;5.38;1.08;;;14.20;99.90;;;;;;5056634;28;20036;-80
2024/04/04 11:01:47;;;;;;;4.93;1.20;;;14.20;99.90;;;;;;5075061;28;20024;-79
2024/04/04 11:04:14;;;;;;;6.85;1.23;;;14.20;99.90;;;;;;5056631;28;20070;-80
2024/04/04 11:06:43;;;;;;;9.63;1.30;;;14.30;99.90;;;;;;5074712;28;20052;-80
2024/04/04 11:09:15;;;;;;;8.88;1.00;;;14.30;99.90;;;;;;5056584;28;20384;-78
2024/04/04 11:11:49;;;;;;;6.25;1.30;;;14.30;99.90;;;;;;5057195;28;20115;-79
2024/04/04 11:14:17;;;;;;;6.53;1.30;;;14.30;99.90;;;;;;5056392;28;20028;-79
2024/04/04 11:16:44;;;;;;;5.15;1.08;;;14.40;99.90;;;;;;5056747;28;20382;-79
2024/04/04 11:19:11;;;;;;;6.88;1.38;;;14.50;99.90;;;;;;5073825;28;20074;-79
2024/04/04 11:21:37;;;;;;;4.85;1.08;;;14.40;99.90;;;;;;5074594;28;20104;-80
2024/04/04 11:24:03;;;;;;;10.63;1.52;;;14.60;99.90;;;;;;5074046;28;20017;-79
2024/04/04 11:26:30;;;;;;;3.67;1.25;;;14.70;99.90;;;;;;5056861;28;20463;-79
2024/04/04 11:28:58;;;;;;;4.70;1.15;;;14.70;99.90;;;;;;5056979;28;20059;-79
2024/04/04 11:31:24;;;;;;;3.90;1.10;;;14.70;99.90;;;;;;5073354;28;20107;-79
2024/04/04 11:33:50;;;;;;;4.50;0.75;;;14.70;99.90;;;;;;5055974;28;20028;-79
2024/04/04 11:36:16;;;;;;;4.57;0.75;;;14.60;99.90;;;;;;5055887;28;20032;-80
2024/04/04 11:38:41;;;;;;;5.18;0.98;;;14.70;99.90;;;;;;5056017;28;20521;-79
2024/04/04 11:41:07;;;;;;;3.28;0.80;;;14.50;99.90;;;;;;5073219;28;20021;-79
2024/04/04 11:43:34;;;;;;;4.20;0.90;;;14.60;99.90;;;;;;5056239;28;20466;-79
2024/04/04 11:46:01;;;;;;;5.80;0.77;;;14.60;99.90;;;;;;5055209;28;20056;-83
2024/04/04 11:48:27;;;;;;;7.55;0.77;;;14.70;99.90;;;;;;5055950;28;20051;-79
2024/04/04 11:50:53;;;;;;;4.07;1.17;;;14.60;99.90;;;;;;5055779;28;20024;-79
2024/04/04 11:53:19;;;;;;;1.73;0.90;;;14.60;99.90;;;;;;5055605;28;20021;-80
2024/04/04 11:55:44;;;;;;;4.30;1.10;;;14.50;99.90;;;;;;5056147;28;20041;-79
2024/04/04 11:58:10;;;;;;;4.00;1.17;;;14.50;99.90;;;;;;5055664;28;20028;-79
2024/04/04 12:00:36;;;;;;;3.28;0.70;;;14.50;99.90;;;;;;5055733;28;20446;-79
2024/04/04 12:03:05;;;;;;;2.35;0.63;;;14.50;99.90;;;;;;5073202;28;20458;-83
2024/04/04 12:05:39;;;;;;;3.45;0.68;;;14.50;99.90;;;;;;5073622;28;20025;-79
2024/04/04 12:08:06;;;;;;;1.08;0.43;;;14.50;99.90;;;;;;5055284;28;20027;-78
2024/04/04 12:10:32;;;;;;;3.22;0.40;;;14.40;99.90;;;;;;5055896;28;20025;-79
2024/04/04 12:12:57;;;;;;;2.38;0.68;;;14.40;99.90;;;;;;5055693;28;20461;-80
2024/04/04 12:15:23;;;;;;;2.85;0.40;;;14.40;99.90;;;;;;5055040;28;20020;-80
2024/04/04 12:19:25;;;;;;;1.33;0.43;;;14.50;99.90;;;;;;5055601;28;20041;-79
2024/04/04 12:20:35;;;;;;;4.97;0.60;;;14.50;99.90;;;;;;5073374;28;20077;-79
2024/04/04 12:23:00;;;;;;;2.42;0.50;;;14.50;99.90;;;;;;5055566;28;20029;-79
2024/04/04 12:25:26;;;;;;;0.98;0.35;;;14.60;99.90;;;;;;5055179;28;20111;-79
2024/04/04 12:27:52;;;;;;;3.10;0.60;;;14.50;99.90;;;;;;5055679;28;20020;-79
2024/04/04 12:30:17;;;;;;;2.08;0.50;;;14.50;99.90;;;;;;5055331;28;20028;-79
2024/04/04 12:32:43;;;;;;;5.38;0.70;;;14.50;99.90;;;;;;5073259;28;20021;-79
2024/04/04 12:35:09;;;;;;;3.55;0.60;;;14.40;99.90;;;;;;5055203;28;20088;-80
2024/04/04 12:37:35;;;;;;;2.05;0.60;;;14.40;99.90;;;;;;5073246;28;20085;-79
2024/04/04 12:40:01;;;;;;;1.08;0.40;;;14.30;99.90;;;;;;5055710;28;20024;-80
2024/04/04 12:42:27;;;;;;;1.00;0.70;;;14.40;99.90;;;;;;5074526;28;20100;-80
2024/04/04 12:44:52;;;;;;;2.22;0.70;;;14.50;99.90;;;;;;5055459;28;20057;-80